Time;durP1;ratioP1;P1;durP2;ratioP2;P2;SDS_P1;SDS_P2;PMS_P1;PMS_P2;Temp;Humidity;BMP_temperature;BMP_pressure;BME280_temperature;BME280_humidity;BME280_pressure;Samples;Min_cycle;Max_cycle;Signal;HPM_P1;HPM_P2
2021/07/07 00:02:22;;;;;;;;;4.67;4.67;;;;;-147.17;100.00;59696.56;4973220;28;51950;-56
2021/07/07 00:04:50;;;;;;;;;4.00;4.00;;;;;-147.17;100.00;59696.56;4975427;28;51088;-57
2021/07/07 00:07:16;;;;;;;;;4.00;4.00;;;;;-147.17;100.00;59696.56;4951879;28;51171;-57
2021/07/07 00:09:41;;;;;;;;;5.00;4.33;;;;;-147.17;100.00;59696.56;4975179;28;51062;-55
2021/07/07 00:12:07;;;;;;;;;5.00;4.00;;;;;-147.17;100.00;59696.56;4974662;28;51711;-56
2021/07/07 00:14:32;;;;;;;;;4.00;4.00;;;;;-147.17;100.00;59696.56;4974891;28;51106;-56
2021/07/07 00:16:58;;;;;;;;;3.00;3.00;;;;;-147.17;100.00;59696.56;4973870;28;51130;-56
2021/07/07 00:19:23;;;;;;;;;3.67;3.67;;;;;-147.17;100.00;59696.56;4966773;28;50915;-57
2021/07/07 00:21:48;;;;;;;;;5.00;4.00;;;;;-147.17;100.00;59696.56;4974639;28;51286;-57
2021/07/07 00:24:14;;;;;;;;;4.00;3.67;;;;;-147.17;100.00;59696.56;4977480;28;51085;-57
2021/07/07 00:26:39;;;;;;;;;4.00;4.00;;;;;-147.17;100.00;59696.56;4965342;28;51659;-57
2021/07/07 00:29:04;;;;;;;;;4.00;3.00;;;;;-147.17;100.00;59696.56;4975052;28;51411;-57
2021/07/07 00:31:30;;;;;;;;;4.00;4.00;;;;;-147.17;100.00;59696.56;4974382;28;51818;-57
2021/07/07 00:33:55;;;;;;;;;5.00;5.00;;;;;-147.17;100.00;59696.56;4974556;28;50973;-57
2021/07/07 00:36:20;;;;;;;;;4.00;3.00;;;;;-147.17;100.00;59696.56;4969823;28;51442;-56
2021/07/07 00:38:46;;;;;;;;;4.00;4.00;;;;;-147.17;100.00;59696.56;4984342;28;51094;-56
2021/07/07 00:41:11;;;;;;;;;5.00;4.67;;;;;-147.17;100.00;59696.56;4955630;28;54414;-56
2021/07/07 00:43:37;;;;;;;;;4.33;4.00;;;;;-147.17;100.00;59696.56;4974521;28;50965;-56
2021/07/07 00:46:03;;;;;;;;;4.00;4.00;;;;;-147.17;100.00;59696.56;4973451;28;51158;-56
2021/07/07 00:48:28;;;;;;;;;4.00;4.00;;;;;-147.17;100.00;59696.56;4956230;28;50895;-56
2021/07/07 00:50:55;;;;;;;;;4.33;3.67;;;;;-147.17;100.00;59696.56;4972224;28;51317;-55
2021/07/07 00:53:20;;;;;;;;;4.00;3.33;;;;;-147.17;100.00;59696.56;4970528;28;50914;-56
2021/07/07 00:55:46;;;;;;;;;5.00;5.00;;;;;-147.17;100.00;59696.56;4974130;28;50952;-56
2021/07/07 00:58:12;;;;;;;;;5.00;4.00;;;;;-147.17;100.00;59696.56;4973209;28;51012;-55
2021/07/07 01:00:38;;;;;;;;;3.00;3.00;;;;;-147.17;100.00;59696.56;4974046;28;51786;-56
2021/07/07 01:03:05;;;;;;;;;4.33;4.33;;;;;-147.17;100.00;59696.56;4973729;28;51189;-55
2021/07/07 01:05:30;;;;;;;;;4.33;3.33;;;;;-147.17;100.00;59696.56;4974098;28;51196;-57
2021/07/07 01:07:56;;;;;;;;;4.00;4.00;;;;;-147.17;100.00;59696.56;4972710;28;51085;-57
2021/07/07 01:10:21;;;;;;;;;4.00;4.00;;;;;-147.17;100.00;59696.56;4966474;28;51914;-57
2021/07/07 01:12:47;;;;;;;;;5.00;5.00;;;;;-147.17;100.00;59696.56;4973381;28;51053;-57
2021/07/07 01:15:15;;;;;;;;;4.33;4.00;;;;;-147.17;100.00;59696.56;4964923;28;51175;-57
2021/07/07 01:17:41;;;;;;;;;5.00;5.00;;;;;-147.17;100.00;59696.56;4972921;28;51229;-57
2021/07/07 01:20:13;;;;;;;;;5.33;5.00;;;;;-147.17;100.00;59696.56;4973120;28;52063;-57
2021/07/07 01:22:39;;;;;;;;;5.67;4.00;;;;;-147.17;100.00;59696.56;4973990;28;51009;-59
2021/07/07 01:25:07;;;;;;;;;4.67;4.67;;;;;-147.17;100.00;59696.56;4973679;28;50888;-57
2021/07/07 01:27:32;;;;;;;;;4.00;3.67;;;;;-147.17;100.00;59696.56;4945977;28;51173;-57
2021/07/07 01:29:58;;;;;;;;;3.33;2.67;;;;;-147.17;100.00;59696.56;4972666;28;51193;-56
2021/07/07 01:32:24;;;;;;;;;7.00;5.00;;;;;-147.17;100.00;59696.56;4973398;28;50942;-57
2021/07/07 01:34:50;;;;;;;;;5.00;5.00;;;;;-147.17;100.00;59696.56;4968381;28;51026;-56
2021/07/07 01:37:16;;;;;;;;;4.00;4.00;;;;;-147.17;100.00;59696.56;4969786;28;50985;-57
2021/07/07 01:39:41;;;;;;;;;5.67;5.00;;;;;-147.17;100.00;59696.56;4974107;28;51929;-57
2021/07/07 01:42:07;;;;;;;;;4.67;4.00;;;;;-147.17;100.00;59696.56;4973722;28;51160;-60
2021/07/07 01:44:32;;;;;;;;;6.33;6.33;;;;;-147.17;100.00;59696.56;4972147;28;51069;-57
2021/07/07 01:46:58;;;;;;;;;3.67;3.67;;;;;-147.17;100.00;59696.56;4972787;28;51096;-57
2021/07/07 01:49:23;;;;;;;;;5.00;5.00;;;;;-147.17;100.00;59696.56;4973018;28;51868;-62
2021/07/07 01:51:49;;;;;;;;;3.33;3.33;;;;;-147.17;100.00;59696.56;4972581;28;51251;-57
2021/07/07 01:54:14;;;;;;;;;5.00;5.00;;;;;-147.17;100.00;59696.56;4973237;28;51006;-56
2021/07/07 01:56:39;;;;;;;;;3.00;3.00;;;;;-147.17;100.00;59696.56;4971416;28;50936;-57
2021/07/07 01:59:05;;;;;;;;;5.50;5.50;;;;;-147.17;100.00;59696.56;4972096;28;51152;-56
2021/07/07 02:01:30;;;;;;;;;7.00;5.67;;;;;-147.17;100.00;59696.56;4973031;28;51077;-57
2021/07/07 02:03:55;;;;;;;;;4.33;4.33;;;;;-147.17;100.00;59696.56;4970894;28;51048;-57
2021/07/07 02:06:21;;;;;;;;;4.67;4.67;;;;;-147.17;100.00;59696.56;4972713;28;51271;-57
2021/07/07 02:08:46;;;;;;;;;4.00;4.00;;;;;-147.17;100.00;59696.56;4971954;28;51232;-57
2021/07/07 02:11:11;;;;;;;;;4.00;4.00;;;;;-147.17;100.00;59696.56;4965191;28;51151;-56
2021/07/07 02:13:37;;;;;;;;;5.33;5.33;;;;;-147.17;100.00;59696.56;4973286;28;50946;-56
2021/07/07 02:16:04;;;;;;;;;4.00;3.00;;;;;-147.17;100.00;59696.56;4973050;28;51378;-56
2021/07/07 02:18:29;;;;;;;;;4.33;4.33;;;;;-147.17;100.00;59696.56;4972602;28;52694;-56
2021/07/07 02:20:55;;;;;;;;;5.33;4.67;;;;;-147.17;100.00;59696.56;4973127;28;51156;-56
2021/07/07 02:23:20;;;;;;;;;4.00;4.00;;;;;-147.17;100.00;59696.56;4972466;28;51108;-56
2021/07/07 02:25:46;;;;;;;;;6.33;5.67;;;;;-147.17;100.00;59696.56;4973214;28;51065;-56
2021/07/07 02:28:13;;;;;;;;;4.67;4.00;;;;;-147.17;100.00;59696.56;4969901;28;52850;-57
2021/07/07 02:30:39;;;;;;;;;6.00;5.00;;;;;-147.17;100.00;59696.56;4972107;28;51102;-56
2021/07/07 02:33:06;;;;;;;;;4.33;4.00;;;;;-147.17;100.00;59696.56;4971594;28;51031;-56
2021/07/07 02:35:35;;;;;;;;;3.33;2.67;;;;;-147.17;100.00;59696.56;4973094;28;51313;-56
2021/07/07 02:38:02;;;;;;;;;4.00;3.33;;;;;-147.17;100.00;59696.56;4971217;28;53087;-56
2021/07/07 02:40:31;;;;;;;;;4.33;4.00;;;;;-147.17;100.00;59696.56;4972626;28;51010;-56
2021/07/07 02:42:56;;;;;;;;;4.00;4.00;;;;;-147.17;100.00;59696.56;4972909;28;51194;-59
2021/07/07 02:45:23;;;;;;;;;4.00;4.00;;;;;-147.17;100.00;59696.56;4976867;28;50927;-56
2021/07/07 02:47:49;;;;;;;;;16.25;16.25;;;;;-147.17;100.00;59696.56;4975590;28;52130;-56
2021/07/07 02:50:17;;;;;;;;;8.00;6.00;;;;;-147.17;100.00;59696.56;4967732;28;51209;-57
2021/07/07 02:52:44;;;;;;;;;6.33;6.00;;;;;-147.17;100.00;59696.56;4956035;28;51185;-56
2021/07/07 02:55:14;;;;;;;;;5.67;5.00;;;;;-147.17;100.00;59696.56;4976990;28;50966;-56
2021/07/07 02:57:58;;;;;;;;;6.00;5.00;;;;;-147.17;100.00;59696.56;4972567;28;51065;-56
2021/07/07 03:00:28;;;;;;;;;71.33;60.00;;;;;-147.17;100.00;59696.56;4976508;28;51101;-56
2021/07/07 03:02:55;;;;;;;;;71.25;60.25;;;;;-147.17;100.00;59696.56;4975190;28;51124;-57
2021/07/07 03:05:20;;;;;;;;;4.00;4.00;;;;;-147.17;100.00;59696.56;4976701;28;52164;-56
2021/07/07 03:07:46;;;;;;;;;4.00;4.00;;;;;-147.17;100.00;59696.56;4975508;28;51875;-55
2021/07/07 03:10:12;;;;;;;;;5.00;5.00;;;;;-147.17;100.00;59696.56;4976691;28;51103;-58
2021/07/07 03:12:37;;;;;;;;;6.00;4.67;;;;;-147.17;100.00;59696.56;4958638;28;51059;-56
2021/07/07 03:15:04;;;;;;;;;5.33;5.33;;;;;-147.17;100.00;59696.56;4975217;28;50822;-62
2021/07/07 03:17:29;;;;;;;;;48.00;35.75;;;;;-147.17;100.00;59696.56;4973174;28;51360;-56
2021/07/07 03:19:55;;;;;;;;;30.25;27.75;;;;;-147.17;100.00;59696.56;4975705;28;51069;-56
2021/07/07 03:22:20;;;;;;;;;4.00;4.00;;;;;-147.17;100.00;59696.56;4975170;28;50990;-56
2021/07/07 03:24:46;;;;;;;;;7.00;6.00;;;;;-147.17;100.00;59696.56;4976049;28;51161;-56
2021/07/07 03:27:11;;;;;;;;;4.00;4.00;;;;;-147.17;100.00;59696.56;4974459;28;51157;-55
2021/07/07 03:29:37;;;;;;;;;4.00;4.00;;;;;-147.17;100.00;59696.56;4974968;28;50962;-56
2021/07/07 03:32:03;;;;;;;;;4.00;4.00;;;;;-147.17;100.00;59696.56;4975214;28;51756;-57
2021/07/07 03:34:29;;;;;;;;;5.67;5.00;;;;;-147.17;100.00;59696.56;4975179;28;51099;-56
2021/07/07 03:36:54;;;;;;;;;5.33;5.33;;;;;-147.17;100.00;59696.56;4976084;28;50993;-56
2021/07/07 03:39:19;;;;;;;;;4.00;4.00;;;;;-147.17;100.00;59696.56;4983623;28;51095;-56
2021/07/07 03:41:45;;;;;;;;;4.33;4.33;;;;;-147.17;100.00;59696.56;4973765;28;51258;-56
2021/07/07 03:44:10;;;;;;;;;6.00;6.00;;;;;-147.17;100.00;59696.56;4976059;28;51122;-56
2021/07/07 03:46:35;;;;;;;;;5.67;5.00;;;;;-147.17;100.00;59696.56;4972890;28;52737;-56
2021/07/07 03:49:01;;;;;;;;;5.00;4.00;;;;;-147.17;100.00;59696.56;4958153;28;50877;-56
2021/07/07 03:51:26;;;;;;;;;5.33;5.00;;;;;-147.17;100.00;59696.56;4973787;28;50850;-56
2021/07/07 03:53:52;;;;;;;;;7.00;6.00;;;;;-147.17;100.00;59696.56;4974873;28;51311;-55
2021/07/07 03:56:17;;;;;;;;;8.00;6.00;;;;;-147.17;100.00;59696.56;4974125;28;52188;-55
2021/07/07 03:58:42;;;;;;;;;4.33;4.33;;;;;-147.17;100.00;59696.56;4975492;28;50857;-56
2021/07/07 04:01:07;;;;;;;;;5.33;5.00;;;;;-147.17;100.00;59696.56;4956046;28;51244;-55
2021/07/07 04:03:33;;;;;;;;;5.00;4.33;;;;;-147.17;100.00;59696.56;4973690;28;51035;-55
2021/07/07 04:05:58;;;;;;;;;6.00;5.33;;;;;-147.17;100.00;59696.56;4974865;28;50860;-56
2021/07/07 04:08:23;;;;;;;;;5.00;5.00;;;;;-147.17;100.00;59696.56;4973905;28;51076;-56
2021/07/07 04:10:49;;;;;;;;;5.33;4.67;;;;;-147.17;100.00;59696.56;4968249;28;51748;-57
2021/07/07 04:13:14;;;;;;;;;8.00;5.67;;;;;-147.17;100.00;59696.56;4969370;28;51352;-56
2021/07/07 04:15:40;;;;;;;;;5.00;4.00;;;;;-147.17;100.00;59696.56;4975026;28;51694;-56
2021/07/07 04:18:08;;;;;;;;;6.67;5.00;;;;;-147.17;100.00;59696.56;4972697;28;51294;-57
2021/07/07 04:20:34;;;;;;;;;5.67;5.00;;;;;-147.17;100.00;59696.56;4948009;28;51236;-55
2021/07/07 04:22:59;;;;;;;;;6.67;6.33;;;;;-147.17;100.00;59696.56;4974857;28;51371;-57
2021/07/07 04:25:25;;;;;;;;;4.67;4.33;;;;;-147.17;100.00;59696.56;4974950;28;51838;-56
2021/07/07 04:27:50;;;;;;;;;5.67;4.67;;;;;-147.17;100.00;59696.56;4972236;28;51359;-57
2021/07/07 04:30:17;;;;;;;;;5.00;5.00;;;;;-147.17;100.00;59696.56;4974823;28;51152;-56
2021/07/07 04:32:45;;;;;;;;;4.00;3.33;;;;;-147.17;100.00;59696.56;4941113;28;50937;-56
2021/07/07 04:35:11;;;;;;;;;4.33;4.00;;;;;-147.17;100.00;59696.56;4965979;28;52206;-57
2021/07/07 04:37:37;;;;;;;;;6.00;6.00;;;;;-147.17;100.00;59696.56;4956221;28;51284;-56
2021/07/07 04:40:07;;;;;;;;;6.33;6.33;;;;;-147.17;100.00;59696.56;4974490;28;50967;-56
2021/07/07 04:42:33;;;;;;;;;7.33;6.33;;;;;-147.17;100.00;59696.56;4974559;28;50942;-56
2021/07/07 04:44:58;;;;;;;;;5.00;5.00;;;;;-147.17;100.00;59696.56;4973586;28;53192;-56
2021/07/07 04:47:24;;;;;;;;;5.00;5.00;;;;;-147.17;100.00;59696.56;4972713;28;50945;-56
2021/07/07 04:49:49;;;;;;;;;6.67;5.67;;;;;-147.17;100.00;59696.56;4969468;28;51256;-56
2021/07/07 04:52:14;;;;;;;;;4.67;4.67;;;;;-147.17;100.00;59696.56;4970301;28;51300;-56
2021/07/07 04:54:40;;;;;;;;;7.67;5.67;;;;;-147.17;100.00;59696.56;4973283;28;52251;-56
2021/07/07 04:57:05;;;;;;;;;6.00;6.00;;;;;-147.17;100.00;59696.56;4973058;28;51209;-56
2021/07/07 04:59:31;;;;;;;;;8.00;7.00;;;;;-147.17;100.00;59696.56;4975935;28;51260;-56
2021/07/07 05:01:56;;;;;;;;;6.33;6.33;;;;;-147.17;100.00;59696.56;4974012;28;51076;-56
2021/07/07 05:04:21;;;;;;;;;4.33;4.00;;;;;-147.17;100.00;59696.56;4972496;28;51892;-55
2021/07/07 05:06:47;;;;;;;;;6.00;6.00;;;;;-147.17;100.00;59696.56;4970857;28;51127;-56
2021/07/07 05:09:12;;;;;;;;;5.00;5.00;;;;;-147.17;100.00;59696.56;4969473;28;51735;-55
2021/07/07 05:11:38;;;;;;;;;8.00;7.00;;;;;-147.17;100.00;59696.56;4972867;28;50899;-55
2021/07/07 05:14:03;;;;;;;;;6.00;6.00;;;;;-147.17;100.00;59696.56;4972439;28;52019;-56
2021/07/07 05:16:28;;;;;;;;;6.00;6.00;;;;;-147.17;100.00;59696.56;4976535;28;51054;-55
2021/07/07 05:18:54;;;;;;;;;8.67;6.33;;;;;-147.17;100.00;59696.56;4972366;28;50987;-55
2021/07/07 05:21:19;;;;;;;;;7.67;7.00;;;;;-147.17;100.00;59696.56;4969494;28;50923;-55
2021/07/07 05:23:45;;;;;;;;;7.67;6.00;;;;;-147.17;100.00;59696.56;4969877;28;51521;-54
2021/07/07 05:26:10;;;;;;;;;7.33;5.67;;;;;-147.17;100.00;59696.56;4971811;28;51121;-54
2021/07/07 05:28:36;;;;;;;;;8.33;7.00;;;;;-147.17;100.00;59696.56;4970835;28;50995;-57
2021/07/07 05:31:05;;;;;;;;;6.00;6.00;;;;;-147.17;100.00;59696.56;4971269;28;51296;-57
2021/07/07 05:33:34;;;;;;;;;7.00;6.67;;;;;-147.17;100.00;59696.56;4970719;28;52757;-56
2021/07/07 05:36:08;;;;;;;;;7.00;7.00;;;;;-147.17;100.00;59696.56;4971157;28;50919;-57
2021/07/07 05:38:34;;;;;;;;;6.00;6.00;;;;;-147.17;100.00;59696.56;4972602;28;51109;-57
2021/07/07 05:41:00;;;;;;;;;7.33;7.00;;;;;-147.17;100.00;59696.56;4953646;28;50944;-56
2021/07/07 05:43:26;;;;;;;;;6.00;5.00;;;;;-147.17;100.00;59696.56;4969067;28;52005;-56
2021/07/07 05:45:52;;;;;;;;;6.33;6.33;;;;;-147.17;100.00;59696.56;4971163;28;51042;-56
2021/07/07 05:48:18;;;;;;;;;9.00;8.33;;;;;-147.17;100.00;59696.56;4971299;28;50883;-56
2021/07/07 05:50:43;;;;;;;;;7.00;7.00;;;;;-147.17;100.00;59696.56;4953434;28;51169;-56
2021/07/07 05:53:09;;;;;;;;;8.00;7.33;;;;;-147.17;100.00;59696.56;4970956;28;51983;-60
2021/07/07 05:55:35;;;;;;;;;7.33;7.33;;;;;-147.17;100.00;59696.56;4970931;28;51234;-56
2021/07/07 05:58:00;;;;;;;;;8.00;7.67;;;;;-147.17;100.00;59696.56;4971304;28;51113;-56
2021/07/07 06:00:26;;;;;;;;;9.67;8.00;;;;;-147.17;100.00;59696.56;4969901;28;51049;-56
2021/07/07 06:02:53;;;;;;;;;8.33;8.33;;;;;-147.17;100.00;59696.56;4932975;28;1219643;-57
2021/07/07 06:05:19;;;;;;;;;7.00;6.67;;;;;-147.17;100.00;59696.56;4972746;28;51230;-56
2021/07/07 06:07:45;;;;;;;;;7.33;7.33;;;;;-147.17;100.00;59696.56;4972774;28;51078;-56
2021/07/07 06:10:13;;;;;;;;;8.67;7.67;;;;;-147.17;100.00;59696.56;4973086;28;50935;-55
2021/07/07 06:12:38;;;;;;;;;6.67;5.67;;;;;-147.17;100.00;59696.56;4963515;28;52298;-55
2021/07/07 06:15:07;;;;;;;;;6.00;6.00;;;;;-147.17;100.00;59696.56;4973055;28;51339;-56
2021/07/07 06:17:33;;;;;;;;;6.33;6.33;;;;;-147.17;100.00;59696.56;4946569;28;51106;-56
2021/07/07 06:19:59;;;;;;;;;6.67;6.33;;;;;-147.17;100.00;59696.56;4973320;28;51316;-56
2021/07/07 06:22:25;;;;;;;;;6.00;5.67;;;;;-147.17;100.00;59696.56;4972677;28;52524;-57
2021/07/07 06:24:51;;;;;;;;;8.00;7.00;;;;;-147.17;100.00;59696.56;4972953;28;50853;-56
2021/07/07 06:27:16;;;;;;;;;6.00;6.00;;;;;-147.17;100.00;59696.56;4972963;28;51021;-57
2021/07/07 06:29:42;;;;;;;;;6.00;6.00;;;;;-147.17;100.00;59696.56;4973204;28;51371;-57
2021/07/07 06:32:07;;;;;;;;;6.67;6.67;;;;;-147.17;100.00;59696.56;4972528;28;50931;-57
2021/07/07 06:34:33;;;;;;;;;8.33;8.33;;;;;-147.17;100.00;59696.56;4946713;28;51138;-56
2021/07/07 06:36:58;;;;;;;;;9.67;9.67;;;;;-147.17;100.00;59696.56;4968578;28;51734;-57
2021/07/07 06:39:23;;;;;;;;;7.67;7.33;;;;;-147.17;100.00;59696.56;4973184;28;51069;-56
2021/07/07 06:41:49;;;;;;;;;8.00;7.00;;;;;-147.17;100.00;59696.56;4972525;28;52722;-57
2021/07/07 06:44:14;;;;;;;;;8.00;7.67;;;;;-147.17;100.00;59696.56;4973040;28;51133;-56
2021/07/07 06:46:40;;;;;;;;;8.33;8.33;;;;;-147.17;100.00;59696.56;4972442;28;51100;-56
2021/07/07 06:49:05;;;;;;;;;6.00;6.00;;;;;-147.17;100.00;59696.56;4972661;28;50950;-56
2021/07/07 06:51:30;;;;;;;;;7.00;6.67;;;;;-147.17;100.00;59696.56;4971213;28;51786;-57
2021/07/07 06:53:56;;;;;;;;;7.00;5.67;;;;;-147.17;100.00;59696.56;4961168;28;50955;-57
2021/07/07 06:56:21;;;;;;;;;5.67;5.67;;;;;-147.17;100.00;59696.56;4954760;28;51052;-56
2021/07/07 06:58:46;;;;;;;;;6.33;5.33;;;;;-147.17;100.00;59696.56;4972419;28;51177;-56
2021/07/07 07:01:12;;;;;;;;;5.00;5.00;;;;;-147.17;100.00;59696.56;4971425;28;51728;-56
2021/07/07 07:03:37;;;;;;;;;7.33;7.33;;;;;-147.17;100.00;59696.56;4971775;28;50987;-56
2021/07/07 07:06:03;;;;;;;;;8.00;7.00;;;;;-147.17;100.00;59696.56;4971568;28;51186;-57
2021/07/07 07:08:28;;;;;;;;;8.00;8.00;;;;;-147.17;100.00;59696.56;4948590;28;51262;-56
2021/07/07 07:10:53;;;;;;;;;8.00;8.00;;;;;-147.17;100.00;59696.56;4971609;28;51666;-56
2021/07/07 07:13:19;;;;;;;;;5.33;5.33;;;;;-147.17;100.00;59696.56;4954471;28;51204;-57
2021/07/07 07:15:47;;;;;;;;;5.00;4.33;;;;;-147.17;100.00;59696.56;4971771;28;51328;-57
2021/07/07 07:18:13;;;;;;;;;8.00;6.33;;;;;-147.17;100.00;59696.56;4971811;28;50943;-57
2021/07/07 07:20:39;;;;;;;;;7.67;6.00;;;;;-147.17;100.00;59696.56;4971373;28;51618;-57
2021/07/07 07:23:04;;;;;;;;;3.00;3.00;;;;;-147.17;100.00;59696.56;4967256;28;50975;-56
2021/07/07 07:25:30;;;;;;;;;5.00;3.33;;;;;-147.17;100.00;59696.56;4969154;28;51480;-56
2021/07/07 07:27:56;;;;;;;;;5.00;5.00;;;;;-147.17;100.00;59696.56;4969735;28;51244;-57
2021/07/07 07:30:21;;;;;;;;;6.00;6.00;;;;;-147.17;100.00;59696.56;4957437;28;51716;-57
2021/07/07 07:32:48;;;;;;;;;5.00;5.00;;;;;-147.17;100.00;59696.56;4974674;28;51109;-57
2021/07/07 07:35:16;;;;;;;;;6.00;6.00;;;;;-147.17;100.00;59696.56;4975258;28;50948;-57
2021/07/07 07:37:49;;;;;;;;;7.00;7.00;;;;;-147.17;100.00;59696.56;4979036;28;51295;-57
2021/07/07 07:40:21;;;;;;;;;5.67;5.67;;;;;-147.17;100.00;59696.56;4973740;28;52747;-57
2021/07/07 07:42:47;;;;;;;;;4.67;4.67;;;;;-147.17;100.00;59696.56;4975030;28;51161;-57
2021/07/07 07:45:13;;;;;;;;;4.33;4.00;;;;;-147.17;100.00;59696.56;4975151;28;51271;-57
2021/07/07 07:47:42;;;;;;;;;3.00;3.00;;;;;-147.17;100.00;59696.56;4975059;28;51107;-58
2021/07/07 07:50:11;;;;;;;;;8.67;8.67;;;;;-147.17;100.00;59696.56;4956990;28;51862;-57
2021/07/07 07:52:40;;;;;;;;;7.67;6.33;;;;;-147.17;100.00;59696.56;4974093;28;51066;-57
2021/07/07 07:55:07;;;;;;;;;5.00;4.33;;;;;-147.17;100.00;59696.56;4973419;28;50962;-57
2021/07/07 07:57:36;;;;;;;;;5.67;5.33;;;;;-147.17;100.00;59696.56;4962490;28;51215;-57
2021/07/07 08:00:25;;;;;;;;;3.00;3.00;;;;;-147.17;100.00;59696.56;4974480;28;52030;-57
2021/07/07 08:02:51;;;;;;;;;4.00;4.00;;;;;-147.17;100.00;59696.56;4971514;28;51188;-57
2021/07/07 08:05:17;;;;;;;;;5.00;5.00;;;;;-147.17;100.00;59696.56;4974692;28;51126;-58
2021/07/07 08:07:43;;;;;;;;;5.67;5.67;;;;;-147.17;100.00;59696.56;4974743;28;51007;-57
2021/07/07 08:10:11;;;;;;;;;5.00;5.00;;;;;-147.17;100.00;59696.56;4974612;28;52395;-57
2021/07/07 08:12:37;;;;;;;;;5.33;5.33;;;;;-147.17;100.00;59696.56;4956207;28;51188;-58
2021/07/07 08:15:04;;;;;;;;;8.67;6.00;;;;;-147.17;100.00;59696.56;4974848;28;51186;-59
2021/07/07 08:17:29;;;;;;;;;3.67;3.67;;;;;-147.17;100.00;59696.56;4972325;28;50965;-58
2021/07/07 08:19:55;;;;;;;;;5.00;5.00;;;;;-147.17;100.00;59696.56;4974224;28;51717;-58
2021/07/07 08:22:20;;;;;;;;;5.00;5.00;;;;;-147.17;100.00;59696.56;4974433;28;50876;-58
2021/07/07 08:24:46;;;;;;;;;4.33;4.00;;;;;-147.17;100.00;59696.56;4974489;28;51270;-58
2021/07/07 08:27:12;;;;;;;;;5.00;3.33;;;;;-147.17;100.00;59696.56;4974334;28;50858;-58
2021/07/07 08:29:38;;;;;;;;;3.67;3.67;;;;;-147.17;100.00;59696.56;4962920;28;52023;-58
2021/07/07 08:32:05;;;;;;;;;6.00;6.00;;;;;-147.17;100.00;59696.56;4971532;28;51083;-58
2021/07/07 08:34:32;;;;;;;;;3.00;3.00;;;;;-147.17;100.00;59696.56;4974722;28;50916;-58
2021/07/07 08:36:57;;;;;;;;;3.00;3.00;;;;;-147.17;100.00;59696.56;4976293;28;51177;-58
2021/07/07 08:39:24;;;;;;;;;9.67;8.67;;;;;-147.17;100.00;59696.56;4982074;28;53141;-58
2021/07/07 08:41:49;;;;;;;;;6.00;6.00;;;;;-147.17;100.00;59696.56;4973637;28;50967;-58
2021/07/07 08:44:15;;;;;;;;;6.00;5.00;;;;;-147.17;100.00;59696.56;4974123;28;51141;-58
2021/07/07 08:46:40;;;;;;;;;7.00;6.00;;;;;-147.17;100.00;59696.56;4973595;28;51129;-58
2021/07/07 08:49:07;;;;;;;;;5.00;4.00;;;;;-147.17;100.00;59696.56;4952782;28;50954;-58
2021/07/07 08:51:38;;;;;;;;;5.00;5.00;;;;;-147.17;100.00;59696.56;4973157;28;51014;-58
2021/07/07 08:54:04;;;;;;;;;6.00;5.33;;;;;-147.17;100.00;59696.56;4973500;28;50971;-58
2021/07/07 08:56:30;;;;;;;;;4.00;4.00;;;;;-147.17;100.00;59696.56;4973899;28;50950;-58
2021/07/07 08:58:55;;;;;;;;;6.00;5.33;;;;;-147.17;100.00;59696.56;4975313;28;52799;-60
2021/07/07 09:01:20;;;;;;;;;6.67;6.00;;;;;-147.17;100.00;59696.56;4973441;28;51072;-60
2021/07/07 09:03:46;;;;;;;;;3.00;3.00;;;;;-147.17;100.00;59696.56;4969138;28;51085;-59
2021/07/07 09:06:12;;;;;;;;;6.00;5.00;;;;;-147.17;100.00;59696.56;4973829;28;51341;-59
2021/07/07 09:08:47;;;;;;;;;2.33;2.33;;;;;-147.17;100.00;59696.56;4966436;28;51151;-59
2021/07/07 09:11:31;;;;;;;;;4.00;4.00;;;;;-147.17;100.00;59696.56;4954253;28;51020;-59
2021/07/07 09:14:14;;;;;;;;;4.00;4.00;;;;;-147.17;100.00;59696.56;4954108;28;51031;-59
2021/07/07 09:16:55;;;;;;;;;3.00;3.00;;;;;-147.17;100.00;59696.56;4936399;28;51281;-59
2021/07/07 09:19:23;;;;;;;;;5.67;5.67;;;;;-147.17;100.00;59696.56;4960770;28;52738;-59
2021/07/07 09:21:51;;;;;;;;;7.67;7.00;;;;;-147.17;100.00;59696.56;4973107;28;51034;-59
2021/07/07 09:24:24;;;;;;;;;7.33;6.33;;;;;-147.17;100.00;59696.56;4973483;28;51043;-60
2021/07/07 09:27:02;;;;;;;;;7.33;7.33;;;;;-147.17;100.00;59696.56;4956151;28;51094;-60
2021/07/07 09:29:42;;;;;;;;;5.00;5.00;;;;;-147.17;100.00;59696.56;4964024;28;50962;-59
2021/07/07 09:32:28;;;;;;;;;6.00;6.00;;;;;-147.17;100.00;59696.56;4972550;28;51096;-59
2021/07/07 09:34:59;;;;;;;;;27.00;26.00;;;;;-147.17;100.00;59696.56;4973291;28;51180;-59
2021/07/07 09:37:25;;;;;;;;;7.67;7.33;;;;;-147.17;100.00;59696.56;4978668;28;50956;-60
2021/07/07 09:39:53;;;;;;;;;8.00;7.33;;;;;-147.17;100.00;59696.56;4959995;28;52766;-60
2021/07/07 09:42:30;;;;;;;;;7.00;6.00;;;;;-147.17;100.00;59696.56;4973230;28;50980;-59
2021/07/07 09:44:58;;;;;;;;;6.33;6.33;;;;;-147.17;100.00;59696.56;4971923;28;51143;-59
2021/07/07 09:47:26;;;;;;;;;5.33;5.33;;;;;-147.17;100.00;59696.56;4972444;28;50975;-59
2021/07/07 09:49:51;;;;;;;;;5.00;4.00;;;;;-147.17;100.00;59696.56;4981363;28;51961;-64
2021/07/07 09:52:19;;;;;;;;;5.67;5.00;;;;;-147.17;100.00;59696.56;4970572;28;51052;-60
2021/07/07 09:54:45;;;;;;;;;4.33;4.33;;;;;-147.17;100.00;59696.56;4973058;28;51036;-59
2021/07/07 09:57:10;;;;;;;;;3.67;3.67;;;;;-147.17;100.00;59696.56;4972677;28;50985;-59
2021/07/07 09:59:36;;;;;;;;;6.00;6.00;;;;;-147.17;100.00;59696.56;4972224;28;53759;-58
2021/07/07 10:02:05;;;;;;;;;7.00;7.00;;;;;-147.17;100.00;59696.56;4972289;28;51072;-57
2021/07/07 10:04:34;;;;;;;;;5.67;5.00;;;;;-147.17;100.00;59696.56;4972723;28;51051;-58
2021/07/07 10:07:02;;;;;;;;;4.67;4.67;;;;;-147.17;100.00;59696.56;4972552;28;50996;-59
2021/07/07 10:09:28;;;;;;;;;5.67;5.33;;;;;-147.17;100.00;59696.56;4972341;28;51934;-59
2021/07/07 10:11:55;;;;;;;;;4.67;4.00;;;;;-147.17;100.00;59696.56;4972080;28;51022;-58
2021/07/07 10:14:22;;;;;;;;;6.00;5.33;;;;;-147.17;100.00;59696.56;4972516;28;50887;-59
2021/07/07 10:16:49;;;;;;;;;6.00;6.00;;;;;-147.17;100.00;59696.56;4971943;28;50998;-58
2021/07/07 10:19:15;;;;;;;;;5.00;5.00;;;;;-147.17;100.00;59696.56;4971876;28;52173;-59
2021/07/07 10:21:41;;;;;;;;;3.67;3.67;;;;;-147.17;100.00;59696.56;4971732;28;51155;-58
2021/07/07 10:24:08;;;;;;;;;2.67;2.33;;;;;-147.17;100.00;59696.56;4972403;28;51166;-58
2021/07/07 10:26:34;;;;;;;;;4.00;4.00;;;;;-147.17;100.00;59696.56;4951528;28;51437;-59
2021/07/07 10:29:00;;;;;;;;;5.00;5.00;;;;;-147.17;100.00;59696.56;4972209;28;51038;-59
2021/07/07 10:31:56;;;;;;;;;6.33;6.33;;;;;-147.17;100.00;59696.56;4971864;28;51244;-60
2021/07/07 10:34:26;;;;;;;;;6.00;6.00;;;;;-147.17;100.00;59696.56;4967693;28;51148;-60
2021/07/07 10:36:56;;;;;;;;;8.00;8.00;;;;;-147.17;100.00;59696.56;4973323;28;51345;-58
2021/07/07 10:39:22;;;;;;;;;9.00;8.33;;;;;-147.17;100.00;59696.56;4954193;28;51965;-58
2021/07/07 10:41:51;;;;;;;;;7.67;6.67;;;;;-147.17;100.00;59696.56;4971253;28;51210;-58
2021/07/07 10:44:22;;;;;;;;;4.67;4.67;;;;;-147.17;100.00;59696.56;4958833;28;51086;-59
2021/07/07 10:47:09;;;;;;;;;8.67;8.67;;;;;-147.17;100.00;59696.56;4971668;28;51468;-58
2021/07/07 10:49:40;;;;;;;;;6.00;6.00;;;;;-147.17;100.00;59696.56;4971192;28;51760;-58
2021/07/07 10:52:08;;;;;;;;;4.00;4.00;;;;;-147.17;100.00;59696.56;4971234;28;51137;-59
2021/07/07 10:54:42;;;;;;;;;5.00;5.00;;;;;-147.17;100.00;59696.56;4971830;28;51041;-59
2021/07/07 10:57:09;;;;;;;;;6.67;6.67;;;;;-147.17;100.00;59696.56;4954714;28;51111;-58
2021/07/07 10:59:42;;;;;;;;;6.00;5.67;;;;;-147.17;100.00;59696.56;4970937;28;51992;-59
2021/07/07 11:02:24;;;;;;;;;6.00;6.00;;;;;-147.17;100.00;59696.56;4971388;28;51065;-59
2021/07/07 11:04:53;;;;;;;;;8.33;7.33;;;;;-147.17;100.00;59696.56;4974268;28;51180;-59
2021/07/07 11:07:21;;;;;;;;;5.33;4.33;;;;;-147.17;100.00;59696.56;4975216;28;51003;-59
2021/07/07 11:09:52;;;;;;;;;7.67;6.67;;;;;-147.17;100.00;59696.56;4973974;28;52365;-60